createdAt,value
2017-05-22T00:02:20.981Z,14.58
2017-05-22T00:04:50.862Z,14.59
2017-05-22T00:07:21.207Z,14.55
2017-05-22T00:09:51.049Z,14.47
2017-05-22T00:12:21.948Z,14.51
2017-05-22T00:14:51.784Z,14.46
2017-05-22T00:17:22.420Z,14.51
2017-05-22T00:19:52.257Z,14.35
2017-05-22T00:22:22.139Z,14.39
2017-05-22T00:24:52.074Z,14.36
2017-05-22T00:27:21.919Z,14.38
2017-05-22T00:29:51.809Z,14.39
2017-05-22T00:32:21.651Z,14.32
2017-05-22T00:34:51.504Z,14.34
2017-05-22T00:37:21.398Z,14.25
2017-05-22T00:39:51.225Z,14.27
2017-05-22T00:42:21.148Z,14.23
2017-05-22T00:44:51.012Z,14.23
2017-05-22T00:47:21.357Z,14.19
2017-05-22T00:49:51.251Z,14.24
2017-05-22T00:52:21.083Z,14.18
2017-05-22T00:54:50.927Z,14.23
2017-05-22T00:57:20.463Z,14.19
2017-05-22T00:59:50.301Z,14.16
2017-05-22T01:02:20.150Z,14.14
2017-05-22T01:04:50.016Z,14.15
2017-05-22T01:07:19.866Z,14.15
2017-05-22T01:09:49.756Z,14.06
2017-05-22T01:12:19.592Z,13.98
2017-05-22T01:14:49.475Z,13.98
2017-05-22T01:17:19.317Z,13.94
2017-05-22T01:19:49.208Z,13.96
2017-05-22T01:22:19.068Z,13.87
2017-05-22T01:24:48.906Z,13.96
2017-05-22T01:27:18.801Z,13.91
2017-05-22T01:29:49.111Z,13.88
2017-05-22T01:32:18.956Z,13.94
2017-05-22T01:34:48.841Z,13.92
2017-05-22T01:37:18.313Z,13.82
2017-05-22T01:39:48.147Z,13.78
2017-05-22T01:42:18.036Z,13.73
2017-05-22T01:44:47.593Z,13.70
2017-05-22T01:47:17.428Z,13.72
2017-05-22T01:49:48.309Z,13.70
2017-05-22T01:52:18.155Z,13.72
2017-05-22T01:54:48.009Z,13.63
2017-05-22T01:57:17.884Z,13.68
2017-05-22T01:59:47.730Z,13.70
2017-05-22T02:02:17.621Z,13.72
2017-05-22T02:04:47.507Z,13.63
2017-05-22T02:07:17.351Z,13.49
2017-05-22T02:09:47.199Z,13.42
2017-05-22T02:12:17.083Z,13.39
2017-05-22T02:14:48.945Z,13.33
2017-05-22T02:17:18.826Z,13.32
2017-05-22T02:19:49.241Z,13.30
2017-05-22T02:22:19.150Z,13.33
2017-05-22T02:24:48.985Z,13.33
2017-05-22T02:27:18.844Z,13.35
2017-05-22T02:29:49.316Z,13.31
2017-05-22T02:32:19.163Z,13.28
2017-05-22T02:34:49.105Z,13.22
2017-05-22T02:37:18.971Z,13.19
2017-05-22T02:39:48.817Z,13.24
2017-05-22T02:42:18.710Z,13.26
2017-05-22T02:44:48.543Z,13.16
2017-05-22T02:47:18.399Z,13.11
2017-05-22T02:49:48.296Z,13.13
2017-05-22T02:52:18.127Z,13.04
2017-05-22T02:54:47.964Z,13.07
2017-05-22T02:57:17.856Z,13.04
2017-05-22T02:59:47.695Z,13.06
2017-05-22T03:02:17.881Z,12.98
2017-05-22T03:04:48.654Z,13.01
2017-05-22T03:07:18.502Z,13.02
2017-05-22T03:09:48.341Z,13.00
2017-05-22T03:12:18.243Z,12.99
2017-05-22T03:14:48.092Z,12.98
2017-05-22T03:17:17.954Z,12.95
2017-05-22T03:19:47.824Z,12.87
2017-05-22T03:22:20.844Z,12.86
2017-05-22T03:24:50.752Z,12.90
2017-05-22T03:27:21.488Z,12.86
2017-05-22T03:29:51.397Z,12.83
2017-05-22T03:32:21.236Z,12.83
2017-05-22T03:34:51.104Z,12.88
2017-05-22T03:37:21.272Z,12.90
2017-05-22T03:39:51.189Z,12.90
2017-05-22T03:42:21.027Z,12.85
2017-05-22T03:44:50.895Z,12.75
2017-05-22T03:47:21.339Z,12.77
2017-05-22T03:49:51.176Z,12.83
2017-05-22T03:52:21.045Z,12.90
2017-05-22T03:54:50.883Z,12.93
2017-05-22T03:57:20.903Z,12.94
2017-05-22T03:59:50.767Z,12.99
2017-05-22T04:02:20.606Z,13.08
2017-05-22T04:04:50.492Z,13.14
2017-05-22T04:07:20.348Z,13.17
2017-05-22T04:09:50.192Z,13.14
2017-05-22T04:12:20.084Z,13.09
2017-05-22T04:14:49.924Z,13.17
2017-05-22T04:17:20.347Z,13.20
2017-05-22T04:19:50.244Z,13.30
2017-05-22T04:22:20.080Z,13.31
2017-05-22T04:24:49.926Z,13.26
2017-05-22T04:27:19.821Z,13.14
2017-05-22T04:29:49.698Z,13.26
2017-05-22T04:32:19.572Z,13.20
2017-05-22T04:34:49.421Z,13.36
2017-05-22T04:37:19.276Z,13.39
2017-05-22T04:39:49.164Z,13.42
2017-05-22T04:42:19.001Z,13.54
2017-05-22T04:44:48.843Z,13.69
2017-05-22T04:47:18.749Z,13.76
2017-05-22T04:49:48.606Z,13.66
2017-05-22T04:52:18.458Z,13.60
2017-05-22T04:54:48.367Z,13.52
2017-05-22T04:57:18.224Z,13.59
2017-05-22T04:59:48.157Z,13.59
2017-05-22T05:02:18.038Z,13.58
2017-05-22T05:04:47.898Z,13.59
2017-05-22T05:07:17.785Z,13.67
2017-05-22T05:09:47.689Z,13.65
2017-05-22T05:12:17.531Z,13.68
2017-05-22T05:14:47.385Z,13.73
2017-05-22T05:17:17.371Z,13.73
2017-05-22T05:19:47.211Z,13.81
2017-05-22T05:22:17.111Z,13.81
2017-05-22T05:24:46.954Z,13.71
2017-05-22T05:27:16.827Z,13.73
2017-05-22T05:29:46.738Z,13.88
2017-05-22T05:32:16.580Z,13.85
2017-05-22T05:34:46.445Z,13.85
2017-05-22T05:37:16.341Z,13.96
2017-05-22T05:39:46.186Z,14.03
2017-05-22T05:42:16.035Z,14.18
2017-05-22T05:44:45.745Z,14.15
2017-05-22T05:47:15.592Z,14.04
2017-05-22T05:49:45.536Z,14.10
2017-05-22T05:52:15.377Z,14.19
2017-05-22T05:54:46.290Z,14.27
2017-05-22T05:57:16.138Z,14.33
2017-05-22T05:59:45.981Z,14.27
2017-05-22T06:02:16.119Z,14.35
2017-05-22T06:04:46.003Z,14.37
2017-05-22T06:07:15.878Z,14.46
2017-05-22T06:09:45.793Z,14.44
2017-05-22T06:12:15.706Z,14.60
2017-05-22T06:14:45.593Z,14.64
2017-05-22T06:17:15.436Z,14.72
2017-05-22T06:19:45.277Z,14.66
2017-05-22T06:22:15.168Z,14.67
2017-05-22T06:24:45.018Z,14.73
2017-05-22T06:27:16.192Z,14.78
2017-05-22T06:29:46.073Z,14.79
2017-05-22T06:32:15.951Z,14.80
2017-05-22T06:34:45.842Z,14.93
2017-05-22T06:37:16.595Z,15.04
2017-05-22T06:39:46.491Z,15.15
2017-05-22T06:42:16.323Z,15.17
2017-05-22T06:44:46.160Z,15.16
2017-05-22T06:47:16.046Z,15.29
2017-05-22T06:49:45.883Z,15.38
2017-05-22T06:52:15.773Z,15.51
2017-05-22T06:54:45.665Z,15.60
2017-05-22T06:57:15.501Z,15.76
2017-05-22T06:59:45.351Z,15.95
2017-05-22T07:02:15.232Z,16.07
2017-05-22T07:04:45.081Z,16.09
2017-05-22T07:07:14.915Z,16.29
2017-05-22T07:09:44.784Z,16.36
2017-05-22T07:12:14.621Z,16.57
2017-05-22T07:14:44.455Z,16.68
2017-05-22T07:17:14.344Z,16.70
2017-05-22T07:19:44.185Z,16.86
2017-05-22T07:22:14.028Z,16.99
2017-05-22T07:24:43.964Z,17.00
2017-05-22T07:27:13.809Z,17.04
2017-05-22T07:29:43.646Z,17.23
2017-05-22T07:32:13.536Z,17.26
2017-05-22T07:34:43.385Z,17.49
2017-05-22T07:37:13.226Z,17.60
2017-05-22T07:39:43.113Z,17.76
2017-05-22T07:42:12.952Z,17.92
2017-05-22T07:44:42.835Z,18.05
2017-05-22T07:47:12.756Z,18.13
2017-05-22T07:49:42.600Z,18.29
2017-05-22T07:52:12.469Z,18.38
2017-05-22T07:54:42.361Z,18.47
2017-05-22T07:57:12.209Z,18.53
2017-05-22T07:59:42.056Z,18.72
2017-05-22T08:02:11.952Z,18.84
2017-05-22T08:04:41.793Z,18.89
2017-05-22T08:07:11.637Z,18.95
2017-05-22T08:09:41.534Z,18.81
2017-05-22T08:12:11.375Z,18.91
2017-05-22T08:14:41.230Z,18.99
2017-05-22T08:17:11.130Z,19.08
2017-05-22T08:19:40.976Z,19.04
2017-05-22T08:22:10.836Z,19.12
2017-05-22T08:24:40.724Z,19.25
2017-05-22T08:27:10.565Z,19.44
2017-05-22T08:29:40.403Z,19.53
2017-05-22T08:32:10.290Z,19.57
2017-05-22T08:34:40.137Z,19.60
2017-05-22T08:37:11.014Z,19.62
2017-05-22T08:39:40.849Z,19.70
2017-05-22T08:42:10.704Z,19.71
2017-05-22T08:44:40.599Z,19.72
2017-05-22T08:47:10.441Z,19.56
2017-05-22T08:49:40.284Z,19.77
2017-05-22T08:52:10.229Z,19.80
2017-05-22T08:54:40.081Z,19.79
2017-05-22T08:57:09.917Z,19.89
2017-05-22T08:59:39.808Z,20.04
2017-05-22T09:02:09.659Z,20.03
2017-05-22T09:04:39.492Z,19.98
2017-05-22T09:07:09.420Z,19.97
2017-05-22T09:09:39.268Z,20.02
2017-05-22T09:12:09.108Z,20.07
2017-05-22T09:14:39.000Z,20.08
2017-05-22T09:17:08.837Z,20.13
2017-05-22T09:19:39.805Z,20.25
2017-05-22T09:22:09.651Z,20.16
2017-05-22T09:24:39.517Z,20.23
2017-05-22T09:27:09.824Z,20.20
2017-05-22T09:29:39.696Z,20.34
2017-05-22T09:32:09.540Z,20.51
2017-05-22T09:34:39.431Z,20.52
2017-05-22T09:37:09.282Z,20.52
2017-05-22T09:39:39.178Z,20.56
2017-05-22T09:42:09.025Z,20.54
2017-05-22T09:44:38.866Z,20.61
2017-05-22T09:47:08.759Z,20.74
2017-05-22T09:49:38.963Z,20.80
2017-05-22T09:52:08.803Z,20.77
2017-05-22T09:54:38.709Z,20.65
2017-05-22T09:57:08.550Z,20.50
2017-05-22T09:59:38.392Z,20.66
2017-05-22T10:02:08.276Z,20.72
2017-05-22T10:04:38.111Z,20.64
2017-05-22T10:07:07.961Z,20.58
2017-05-22T10:09:37.849Z,20.70
2017-05-22T10:12:07.689Z,20.73
2017-05-22T10:14:37.571Z,20.75
2017-05-22T10:17:07.444Z,20.73
2017-05-22T10:19:37.289Z,20.61
2017-05-22T10:22:06.640Z,20.55
2017-05-22T10:24:36.497Z,20.69
2017-05-22T10:27:06.336Z,20.85
2017-05-22T10:29:36.235Z,20.93
2017-05-22T10:32:06.075Z,20.99
2017-05-22T10:34:35.927Z,21.07
2017-05-22T10:37:05.840Z,20.97
2017-05-22T10:39:35.684Z,21.00
2017-05-22T10:42:05.591Z,21.07
2017-05-22T10:44:35.487Z,21.13
2017-05-22T10:47:05.326Z,21.23
2017-05-22T10:49:35.232Z,21.26
2017-05-22T10:52:05.087Z,21.25
2017-05-22T10:54:34.938Z,21.34
2017-05-22T10:57:04.827Z,21.32
2017-05-22T10:59:34.661Z,21.33
2017-05-22T11:02:04.175Z,21.35
2017-05-22T11:04:34.088Z,21.33
2017-05-22T11:07:03.932Z,21.30
2017-05-22T11:09:33.766Z,21.35
2017-05-22T11:12:03.655Z,21.44
2017-05-22T11:14:33.497Z,21.44
2017-05-22T11:17:03.347Z,21.44
2017-05-22T11:19:33.246Z,21.30
2017-05-22T11:22:03.097Z,21.46
2017-05-22T11:24:32.970Z,21.61
2017-05-22T11:27:02.858Z,21.55
2017-05-22T11:29:32.693Z,21.59
2017-05-22T11:32:02.532Z,21.61
2017-05-22T11:34:32.429Z,21.55
2017-05-22T11:37:02.297Z,21.60
2017-05-22T11:39:32.133Z,21.64
2017-05-22T11:42:02.022Z,21.61
2017-05-22T11:44:31.859Z,21.61
2017-05-22T11:47:01.698Z,21.47
2017-05-22T11:49:31.584Z,21.37
2017-05-22T11:52:01.423Z,21.39
2017-05-22T11:54:31.283Z,21.46
2017-05-22T11:57:01.192Z,21.44
2017-05-22T11:59:31.042Z,21.53
2017-05-22T12:02:00.893Z,21.59
2017-05-22T12:04:30.786Z,21.65
2017-05-22T12:07:00.628Z,21.57
2017-05-22T12:09:29.309Z,21.47
2017-05-22T12:11:59.225Z,21.61
2017-05-22T12:14:29.073Z,21.72
2017-05-22T12:16:58.923Z,21.78
2017-05-22T12:19:28.815Z,21.67
2017-05-22T12:21:58.660Z,21.68
2017-05-22T12:24:28.512Z,21.56
2017-05-22T12:29:37.069Z,21.63
2017-05-22T12:32:06.972Z,21.46
2017-05-22T12:34:36.825Z,21.60
2017-05-22T12:37:06.700Z,21.53
2017-05-22T12:39:36.606Z,21.55
2017-05-22T12:42:06.450Z,21.56
2017-05-22T12:44:37.342Z,21.69
2017-05-22T12:47:07.183Z,21.80
2017-05-22T12:49:38.120Z,21.76
2017-05-22T12:52:07.964Z,21.75
2017-05-22T12:54:37.816Z,21.79
2017-05-22T12:57:07.731Z,21.55
2017-05-22T12:59:40.462Z,21.68
2017-05-22T13:02:10.373Z,21.74
2017-05-22T13:04:40.209Z,21.78
2017-05-22T13:07:10.147Z,21.78
2017-05-22T13:09:40.048Z,21.70
2017-05-22T13:12:09.608Z,21.60
2017-05-22T13:14:39.500Z,21.65
2017-05-22T13:17:09.426Z,21.65
2017-05-22T13:19:39.267Z,21.80
2017-05-22T13:22:09.108Z,21.84
2017-05-22T13:24:39.029Z,21.75
2017-05-22T13:27:08.873Z,21.66
2017-05-22T13:29:38.751Z,21.68
2017-05-22T13:32:08.641Z,21.64
2017-05-22T13:34:38.483Z,21.72
2017-05-22T13:39:47.421Z,21.56
2017-05-22T13:42:17.259Z,21.60
2017-05-22T13:44:47.097Z,21.70
2017-05-22T13:47:16.979Z,21.71
2017-05-22T13:49:46.821Z,21.65
2017-05-22T13:52:16.701Z,21.56
2017-05-22T13:54:46.593Z,21.61
2017-05-22T13:57:16.440Z,21.70
2017-05-22T13:59:46.288Z,21.57
2017-05-22T14:02:16.189Z,21.59
2017-05-22T14:04:46.051Z,21.69
2017-05-22T14:07:15.912Z,21.71
2017-05-22T14:09:45.791Z,21.77
2017-05-22T14:12:15.623Z,21.91
2017-05-22T14:14:45.456Z,21.85
2017-05-22T14:17:15.352Z,21.90
2017-05-22T14:19:45.200Z,21.92
2017-05-22T14:22:15.091Z,21.94
2017-05-22T14:24:44.937Z,21.95
2017-05-22T14:27:14.794Z,21.98
2017-05-22T14:29:44.681Z,21.91
2017-05-22T14:32:14.524Z,21.81
2017-05-22T14:34:44.362Z,21.77
2017-05-22T14:37:14.248Z,21.87
2017-05-22T14:39:44.107Z,21.95
2017-05-22T14:42:13.984Z,21.86
2017-05-22T14:44:43.898Z,21.80
2017-05-22T14:47:13.772Z,21.81
2017-05-22T14:49:43.615Z,21.79
2017-05-22T14:52:13.537Z,21.72
2017-05-22T14:54:43.377Z,21.74
2017-05-22T14:57:13.216Z,21.56
2017-05-22T14:59:43.181Z,21.50
2017-05-22T15:02:13.037Z,21.60
2017-05-22T15:04:43.856Z,21.66
2017-05-22T15:07:13.766Z,21.61
2017-05-22T15:09:43.649Z,21.61
2017-05-22T15:12:12.951Z,21.65
2017-05-22T15:14:42.834Z,21.83
2017-05-22T15:17:12.665Z,21.75
2017-05-22T15:19:42.558Z,21.76
2017-05-22T15:22:12.433Z,21.56
2017-05-22T15:24:42.349Z,21.45
2017-05-22T15:27:12.199Z,21.42
2017-05-22T15:29:42.100Z,21.41
2017-05-22T15:32:11.934Z,21.46
2017-05-22T15:34:41.785Z,21.47
2017-05-22T15:37:11.669Z,21.52
2017-05-22T15:39:41.508Z,21.59
2017-05-22T15:42:11.408Z,21.52
2017-05-22T15:44:41.248Z,21.50
2017-05-22T15:47:11.140Z,21.45
2017-05-22T15:49:40.985Z,21.50
2017-05-22T15:52:10.839Z,21.52
2017-05-22T15:54:40.728Z,21.52
2017-05-22T15:57:10.566Z,21.36
2017-05-22T15:59:40.414Z,21.36
2017-05-22T16:02:10.311Z,21.40
2017-05-22T16:04:40.148Z,21.47
2017-05-22T16:07:10.018Z,21.46
2017-05-22T16:09:39.919Z,21.37
2017-05-22T16:12:09.771Z,21.30
2017-05-22T16:14:42.613Z,21.34
2017-05-22T16:17:12.448Z,21.35
2017-05-22T16:19:42.337Z,21.33
2017-05-22T16:22:12.182Z,21.31
2017-05-22T16:24:42.026Z,21.40
2017-05-22T16:27:11.917Z,21.36
2017-05-22T16:29:41.765Z,21.33
2017-05-22T16:32:11.613Z,21.27
2017-05-22T16:34:41.498Z,21.33
2017-05-22T16:37:11.376Z,21.28
2017-05-22T16:39:41.254Z,21.30
2017-05-22T16:42:11.158Z,21.28
2017-05-22T16:44:41.960Z,21.29
2017-05-22T16:47:11.849Z,21.32
2017-05-22T16:49:41.687Z,21.38
2017-05-22T16:52:11.578Z,21.46
2017-05-22T16:54:41.451Z,21.52
2017-05-22T16:57:11.292Z,21.44
2017-05-22T16:59:41.176Z,21.41
2017-05-22T17:02:11.018Z,21.40
2017-05-22T17:04:40.868Z,21.37
2017-05-22T17:07:10.753Z,21.33
2017-05-22T17:09:40.592Z,21.46
2017-05-22T17:12:10.428Z,21.44
2017-05-22T17:14:40.339Z,21.42
2017-05-22T17:17:10.181Z,21.45
2017-05-22T17:19:40.082Z,21.48
2017-05-22T17:22:09.924Z,21.37
2017-05-22T17:24:39.769Z,21.37
2017-05-22T17:27:09.657Z,21.30
2017-05-22T17:29:39.494Z,21.25
2017-05-22T17:32:09.335Z,21.19
2017-05-22T17:34:39.211Z,21.19
2017-05-22T17:37:09.050Z,21.15
2017-05-22T17:39:38.936Z,21.11
2017-05-22T17:42:08.789Z,21.10
2017-05-22T17:44:38.628Z,21.07
2017-05-22T17:47:08.508Z,21.01
2017-05-22T17:49:38.344Z,20.95
2017-05-22T17:52:08.233Z,20.91
2017-05-22T17:54:38.084Z,20.88
2017-05-22T17:57:07.929Z,20.85
2017-05-22T17:59:37.806Z,20.81
2017-05-22T18:02:07.653Z,20.78
2017-05-22T18:04:37.562Z,20.73
2017-05-22T18:07:07.447Z,20.70
2017-05-22T18:09:37.294Z,20.66
2017-05-22T18:12:07.160Z,20.58
2017-05-22T18:14:36.997Z,20.59
2017-05-22T18:17:06.891Z,20.54
2017-05-22T18:19:36.736Z,20.45
2017-05-22T18:22:06.579Z,20.37
2017-05-22T18:24:36.439Z,20.38
2017-05-22T18:27:06.300Z,20.30
2017-05-22T18:29:36.199Z,20.29
2017-05-22T18:32:06.052Z,20.26
2017-05-22T18:34:38.447Z,20.11
2017-05-22T18:37:08.284Z,20.05
2017-05-22T18:39:38.144Z,19.96
2017-05-22T18:42:08.021Z,20.00
2017-05-22T18:44:37.873Z,19.88
2017-05-22T18:47:07.760Z,19.91
2017-05-22T18:49:37.628Z,19.85
2017-05-22T18:52:07.475Z,19.74
2017-05-22T18:54:37.336Z,19.72
2017-05-22T18:57:07.182Z,19.63
2017-05-22T18:59:37.067Z,19.50
2017-05-22T19:02:06.924Z,19.40
2017-05-22T19:04:36.775Z,19.29
2017-05-22T19:07:06.641Z,19.28
2017-05-22T19:09:36.487Z,19.11
2017-05-22T19:12:06.382Z,19.10
2017-05-22T19:14:36.398Z,19.12
2017-05-22T19:17:07.323Z,19.00
2017-05-22T19:19:37.169Z,19.04
2017-05-22T19:22:07.063Z,18.96
2017-05-22T19:24:36.892Z,18.82
2017-05-22T19:27:06.743Z,18.76
2017-05-22T19:29:36.602Z,18.71
2017-05-22T19:32:06.447Z,18.72
2017-05-22T19:34:36.345Z,18.63
2017-05-22T19:37:06.179Z,18.64
2017-05-22T19:39:36.010Z,18.54
2017-05-22T19:42:05.888Z,18.49
2017-05-22T19:44:35.736Z,18.37
2017-05-22T19:47:05.621Z,18.40
2017-05-22T19:49:35.452Z,18.45
2017-05-22T19:52:05.356Z,18.38
2017-05-22T19:54:35.201Z,18.24
2017-05-22T19:57:05.032Z,18.19
2017-05-22T19:59:34.888Z,18.19
2017-05-22T20:02:04.724Z,18.15
2017-05-22T20:04:34.619Z,18.17
2017-05-22T20:07:09.839Z,18.17
2017-05-22T20:09:39.738Z,18.11
2017-05-22T20:12:09.573Z,18.03
2017-05-22T20:14:40.457Z,17.96
2017-05-22T20:17:10.295Z,17.89
2017-05-22T20:19:40.169Z,17.83
2017-05-22T20:22:10.027Z,17.76
2017-05-22T20:24:40.489Z,17.83
2017-05-22T20:27:10.368Z,17.77
2017-05-22T20:29:40.217Z,17.64
2017-05-22T20:32:10.086Z,17.65
2017-05-22T20:34:39.955Z,17.65
2017-05-22T20:37:09.796Z,17.56
2017-05-22T20:39:39.689Z,17.55
2017-05-22T20:42:09.539Z,17.56
2017-05-22T20:44:39.383Z,17.45
2017-05-22T20:47:09.246Z,17.39
2017-05-22T20:49:39.084Z,17.41
2017-05-22T20:52:08.975Z,17.29
2017-05-22T20:54:38.815Z,17.33
2017-05-22T20:57:08.659Z,17.29
2017-05-22T20:59:38.523Z,17.21
2017-05-22T21:02:08.359Z,17.22
2017-05-22T21:04:38.248Z,17.20
2017-05-22T21:07:09.107Z,17.16
2017-05-22T21:09:38.996Z,17.09
2017-05-22T21:12:08.900Z,17.05
2017-05-22T21:14:38.799Z,17.10
2017-05-22T21:17:08.660Z,17.05
2017-05-22T21:19:38.551Z,17.03
2017-05-22T21:22:08.394Z,16.93
2017-05-22T21:24:38.284Z,16.89
2017-05-22T21:27:08.125Z,16.84
2017-05-22T21:29:37.984Z,16.86
2017-05-22T21:32:07.881Z,16.77
2017-05-22T21:34:37.712Z,16.79
2017-05-22T21:37:07.620Z,16.77
2017-05-22T21:39:37.461Z,16.75
2017-05-22T21:42:07.429Z,16.70
2017-05-22T21:44:38.239Z,16.67
2017-05-22T21:47:08.131Z,16.63
2017-05-22T21:49:37.968Z,16.60
2017-05-22T21:52:07.866Z,16.51
2017-05-22T21:54:37.740Z,16.42
2017-05-22T21:57:07.586Z,16.36
2017-05-22T21:59:37.484Z,16.38
2017-05-22T22:02:07.360Z,16.43
2017-05-22T22:04:37.212Z,16.39
2017-05-22T22:07:07.128Z,16.30
2017-05-22T22:09:36.991Z,16.31
2017-05-22T22:12:06.947Z,16.25
2017-05-22T22:14:36.792Z,16.18
2017-05-22T22:17:06.645Z,16.10
2017-05-22T22:19:36.510Z,16.03
2017-05-22T22:22:06.352Z,16.08
2017-05-22T22:24:36.263Z,16.05
2017-05-22T22:27:06.103Z,15.99
2017-05-22T22:29:35.990Z,15.88
2017-05-22T22:32:05.860Z,15.90
2017-05-22T22:34:35.696Z,15.85
2017-05-22T22:37:05.571Z,15.91
2017-05-22T22:39:35.417Z,15.97
2017-05-22T22:42:05.268Z,15.96
2017-05-22T22:44:35.147Z,15.95
2017-05-22T22:47:04.988Z,15.91
2017-05-22T22:49:34.872Z,15.88
2017-05-22T22:52:04.722Z,15.88
2017-05-22T22:54:34.574Z,15.85
2017-05-22T22:57:04.442Z,15.87
2017-05-22T22:59:34.282Z,15.85
2017-05-22T23:02:04.177Z,15.78
2017-05-22T23:04:34.037Z,15.70
2017-05-22T23:07:03.877Z,15.69
2017-05-22T23:09:33.741Z,15.67
2017-05-22T23:12:03.049Z,15.72
2017-05-22T23:14:32.947Z,15.65
2017-05-22T23:17:02.783Z,15.66
2017-05-22T23:19:33.595Z,15.67
2017-05-22T23:22:03.423Z,15.65
2017-05-22T23:24:33.256Z,15.56
2017-05-22T23:27:03.122Z,15.55
2017-05-22T23:29:32.973Z,15.53
2017-05-22T23:32:02.872Z,15.55
2017-05-22T23:34:32.737Z,15.51
2017-05-22T23:37:02.571Z,15.48
2017-05-22T23:39:32.438Z,15.46
2017-05-22T23:42:02.273Z,15.39
2017-05-22T23:44:32.172Z,15.41
2017-05-22T23:47:02.017Z,15.40
2017-05-22T23:49:31.864Z,15.39
2017-05-22T23:52:01.721Z,15.35
2017-05-22T23:54:31.565Z,15.17
2017-05-22T23:57:01.462Z,15.26
2017-05-22T23:59:31.307Z,15.33
